sensor_id;sensor_type;location;lat;lon;timestamp;P1;durP1;ratioP1;P2;durP2;ratioP2
7887;SDS011;3989;48.810;9.208;2024-03-02T00:01:39;16.60;;;14.50;;
7887;SDS011;3989;48.810;9.208;2024-03-02T00:04:06;18.40;;;13.90;;
7887;SDS011;3989;48.810;9.208;2024-03-02T00:06:34;17.37;;;14.07;;
7887;SDS011;3989;48.810;9.208;2024-03-02T00:09:03;15.90;;;13.47;;
7887;SDS011;3989;48.810;9.208;2024-03-02T00:11:30;15.20;;;12.97;;
7887;SDS011;3989;48.810;9.208;2024-03-02T00:14:02;15.53;;;13.73;;
7887;SDS011;3989;48.810;9.208;2024-03-02T00:16:30;17.67;;;14.77;;
7887;SDS011;3989;48.810;9.208;2024-03-02T00:19:02;16.83;;;13.70;;
7887;SDS011;3989;48.810;9.208;2024-03-02T00:21:30;14.93;;;13.40;;
7887;SDS011;3989;48.810;9.208;2024-03-02T00:23:58;16.60;;;14.33;;
7887;SDS011;3989;48.810;9.208;2024-03-02T00:26:28;16.07;;;14.33;;
7887;SDS011;3989;48.810;9.208;2024-03-02T00:28:56;18.90;;;14.43;;
7887;SDS011;3989;48.810;9.208;2024-03-02T00:31:23;18.60;;;14.03;;
7887;SDS011;3989;48.810;9.208;2024-03-02T00:33:50;17.57;;;14.13;;
7887;SDS011;3989;48.810;9.208;2024-03-02T00:36:24;16.70;;;14.93;;
7887;SDS011;3989;48.810;9.208;2024-03-02T00:38:54;18.40;;;15.67;;
7887;SDS011;3989;48.810;9.208;2024-03-02T00:41:35;16.67;;;14.73;;
7887;SDS011;3989;48.810;9.208;2024-03-02T00:44:02;15.73;;;13.93;;
7887;SDS011;3989;48.810;9.208;2024-03-02T00:46:33;19.23;;;15.60;;
7887;SDS011;3989;48.810;9.208;2024-03-02T00:49:04;19.70;;;14.57;;
7887;SDS011;3989;48.810;9.208;2024-03-02T00:51:40;18.53;;;14.43;;
7887;SDS011;3989;48.810;9.208;2024-03-02T00:54:07;18.50;;;14.63;;
7887;SDS011;3989;48.810;9.208;2024-03-02T00:56:35;18.50;;;14.93;;
7887;SDS011;3989;48.810;9.208;2024-03-02T00:59:04;18.23;;;15.30;;
7887;SDS011;3989;48.810;9.208;2024-03-02T01:01:32;16.93;;;14.80;;
7887;SDS011;3989;48.810;9.208;2024-03-02T01:03:59;19.70;;;14.43;;
7887;SDS011;3989;48.810;9.208;2024-03-02T01:06:27;16.67;;;14.23;;
7887;SDS011;3989;48.810;9.208;2024-03-02T01:08:56;19.63;;;14.50;;
7887;SDS011;3989;48.810;9.208;2024-03-02T01:11:23;21.23;;;15.17;;
7887;SDS011;3989;48.810;9.208;2024-03-02T01:13:51;19.30;;;14.70;;
7887;SDS011;3989;48.810;9.208;2024-03-02T01:16:18;18.63;;;14.43;;
7887;SDS011;3989;48.810;9.208;2024-03-02T01:18:46;22.07;;;16.10;;
7887;SDS011;3989;48.810;9.208;2024-03-02T01:21:14;23.63;;;15.50;;
7887;SDS011;3989;48.810;9.208;2024-03-02T01:23:41;20.13;;;15.30;;
7887;SDS011;3989;48.810;9.208;2024-03-02T01:26:10;19.43;;;15.23;;
7887;SDS011;3989;48.810;9.208;2024-03-02T01:28:38;22.90;;;15.23;;
7887;SDS011;3989;48.810;9.208;2024-03-02T01:31:05;20.03;;;15.27;;
7887;SDS011;3989;48.810;9.208;2024-03-02T01:33:32;17.77;;;15.73;;
7887;SDS011;3989;48.810;9.208;2024-03-02T01:36:00;20.40;;;15.70;;
7887;SDS011;3989;48.810;9.208;2024-03-02T01:38:27;19.90;;;16.10;;
7887;SDS011;3989;48.810;9.208;2024-03-02T01:40:55;18.93;;;15.27;;
7887;SDS011;3989;48.810;9.208;2024-03-02T01:43:25;19.67;;;15.20;;
7887;SDS011;3989;48.810;9.208;2024-03-02T01:45:53;28.37;;;17.10;;
7887;SDS011;3989;48.810;9.208;2024-03-02T01:48:22;24.07;;;16.30;;
7887;SDS011;3989;48.810;9.208;2024-03-02T01:50:51;21.90;;;16.80;;
7887;SDS011;3989;48.810;9.208;2024-03-02T01:53:19;22.33;;;16.70;;
7887;SDS011;3989;48.810;9.208;2024-03-02T01:55:47;23.70;;;17.47;;
7887;SDS011;3989;48.810;9.208;2024-03-02T01:58:16;23.00;;;17.60;;
7887;SDS011;3989;48.810;9.208;2024-03-02T02:00:46;23.83;;;16.77;;
7887;SDS011;3989;48.810;9.208;2024-03-02T02:03:13;22.87;;;16.27;;
7887;SDS011;3989;48.810;9.208;2024-03-02T02:05:41;25.67;;;18.87;;
7887;SDS011;3989;48.810;9.208;2024-03-02T02:08:13;24.80;;;17.13;;
7887;SDS011;3989;48.810;9.208;2024-03-02T02:10:42;26.70;;;18.00;;
7887;SDS011;3989;48.810;9.208;2024-03-02T02:13:09;25.67;;;17.90;;
7887;SDS011;3989;48.810;9.208;2024-03-02T02:15:37;23.67;;;17.37;;
7887;SDS011;3989;48.810;9.208;2024-03-02T07:32:20;27.40;;;19.07;;
7887;SDS011;3989;48.810;9.208;2024-03-02T07:34:49;26.87;;;19.40;;
7887;SDS011;3989;48.810;9.208;2024-03-02T07:37:19;25.07;;;18.20;;
7887;SDS011;3989;48.810;9.208;2024-03-02T07:39:46;22.67;;;15.63;;
7887;SDS011;3989;48.810;9.208;2024-03-02T07:42:13;19.47;;;15.30;;
7887;SDS011;3989;48.810;9.208;2024-03-02T07:44:41;19.73;;;15.50;;
7887;SDS011;3989;48.810;9.208;2024-03-02T07:47:08;17.20;;;14.53;;
7887;SDS011;3989;48.810;9.208;2024-03-02T07:49:37;14.47;;;12.97;;
7887;SDS011;3989;48.810;9.208;2024-03-02T07:52:04;15.40;;;12.97;;
7887;SDS011;3989;48.810;9.208;2024-03-02T07:54:32;15.87;;;13.37;;
7887;SDS011;3989;48.810;9.208;2024-03-02T07:56:59;15.43;;;12.03;;
7887;SDS011;3989;48.810;9.208;2024-03-02T07:59:27;11.80;;;10.60;;
7887;SDS011;3989;48.810;9.208;2024-03-02T08:01:54;12.40;;;11.10;;
7887;SDS011;3989;48.810;9.208;2024-03-02T08:04:21;11.83;;;10.63;;
7887;SDS011;3989;48.810;9.208;2024-03-02T08:06:50;15.13;;;11.37;;
7887;SDS011;3989;48.810;9.208;2024-03-02T08:09:17;11.83;;;10.63;;
7887;SDS011;3989;48.810;9.208;2024-03-02T08:11:44;12.93;;;10.47;;
7887;SDS011;3989;48.810;9.208;2024-03-02T08:14:12;13.17;;;11.20;;
7887;SDS011;3989;48.810;9.208;2024-03-02T08:16:39;13.43;;;10.20;;
7887;SDS011;3989;48.810;9.208;2024-03-02T08:19:07;11.93;;;9.93;;
7887;SDS011;3989;48.810;9.208;2024-03-02T08:21:36;11.17;;;9.97;;
7887;SDS011;3989;48.810;9.208;2024-03-02T08:24:06;11.30;;;10.20;;
7887;SDS011;3989;48.810;9.208;2024-03-02T08:26:34;11.60;;;10.40;;
7887;SDS011;3989;48.810;9.208;2024-03-02T08:29:06;12.13;;;10.17;;
7887;SDS011;3989;48.810;9.208;2024-03-02T08:31:40;12.63;;;10.50;;
7887;SDS011;3989;48.810;9.208;2024-03-02T08:37:42;9.60;;;8.33;;
7887;SDS011;3989;48.810;9.208;2024-03-02T08:40:19;8.43;;;7.63;;
7887;SDS011;3989;48.810;9.208;2024-03-02T08:42:46;9.33;;;8.43;;
7887;SDS011;3989;48.810;9.208;2024-03-02T08:45:14;10.70;;;8.80;;
7887;SDS011;3989;48.810;9.208;2024-03-02T08:47:41;9.63;;;8.43;;
7887;SDS011;3989;48.810;9.208;2024-03-02T08:50:08;8.97;;;8.07;;
7887;SDS011;3989;48.810;9.208;2024-03-02T08:52:35;10.27;;;8.33;;
7887;SDS011;3989;48.810;9.208;2024-03-02T08:55:04;8.30;;;7.50;;
7887;SDS011;3989;48.810;9.208;2024-03-02T08:57:41;9.03;;;7.60;;
7887;SDS011;3989;48.810;9.208;2024-03-02T09:00:11;9.50;;;8.37;;
7887;SDS011;3989;48.810;9.208;2024-03-02T09:02:39;8.37;;;7.57;;
7887;SDS011;3989;48.810;9.208;2024-03-02T09:05:06;8.57;;;6.90;;
7887;SDS011;3989;48.810;9.208;2024-03-02T09:07:34;7.90;;;7.20;;
7887;SDS011;3989;48.810;9.208;2024-03-02T09:10:01;7.53;;;6.83;;
7887;SDS011;3989;48.810;9.208;2024-03-02T09:12:28;6.50;;;5.90;;
7887;SDS011;3989;48.810;9.208;2024-03-02T09:14:59;8.13;;;6.93;;
7887;SDS011;3989;48.810;9.208;2024-03-02T09:17:28;6.47;;;5.87;;
7887;SDS011;3989;48.810;9.208;2024-03-02T09:19:56;6.53;;;6.00;;
7887;SDS011;3989;48.810;9.208;2024-03-02T09:22:23;6.13;;;5.63;;
7887;SDS011;3989;48.810;9.208;2024-03-02T09:24:50;6.83;;;6.23;;
7887;SDS011;3989;48.810;9.208;2024-03-02T09:27:17;6.30;;;5.77;;
7887;SDS011;3989;48.810;9.208;2024-03-02T09:29:44;6.50;;;5.90;;
7887;SDS011;3989;48.810;9.208;2024-03-02T09:32:13;5.67;;;5.23;;
7887;SDS011;3989;48.810;9.208;2024-03-02T09:34:41;6.00;;;5.50;;
7887;SDS011;3989;48.810;9.208;2024-03-02T09:37:08;6.23;;;5.40;;
7887;SDS011;3989;48.810;9.208;2024-03-02T09:45:23;6.37;;;5.77;;
7887;SDS011;3989;48.810;9.208;2024-03-02T09:48:08;5.80;;;5.30;;
7887;SDS011;3989;48.810;9.208;2024-03-02T09:53:11;5.83;;;5.33;;
7887;SDS011;3989;48.810;9.208;2024-03-02T09:55:39;5.70;;;5.30;;
7887;SDS011;3989;48.810;9.208;2024-03-02T09:58:19;5.53;;;5.07;;
7887;SDS011;3989;48.810;9.208;2024-03-02T10:00:47;5.03;;;4.57;;
7887;SDS011;3989;48.810;9.208;2024-03-02T10:03:16;6.23;;;5.73;;
7887;SDS011;3989;48.810;9.208;2024-03-02T10:13:26;5.00;;;4.70;;
7887;SDS011;3989;48.810;9.208;2024-03-02T10:16:11;4.67;;;4.30;;
7887;SDS011;3989;48.810;9.208;2024-03-02T10:21:18;4.53;;;4.23;;
7887;SDS011;3989;48.810;9.208;2024-03-02T10:23:45;5.40;;;4.93;;
7887;SDS011;3989;48.810;9.208;2024-03-02T10:26:16;5.53;;;4.97;;
7887;SDS011;3989;48.810;9.208;2024-03-02T10:28:45;5.63;;;5.23;;
7887;SDS011;3989;48.810;9.208;2024-03-02T10:31:13;5.07;;;4.67;;
7887;SDS011;3989;48.810;9.208;2024-03-02T10:33:41;5.10;;;4.70;;
7887;SDS011;3989;48.810;9.208;2024-03-02T10:36:08;4.43;;;4.13;;
7887;SDS011;3989;48.810;9.208;2024-03-02T10:38:38;4.70;;;4.40;;
7887;SDS011;3989;48.810;9.208;2024-03-02T10:41:08;4.23;;;3.93;;
7887;SDS011;3989;48.810;9.208;2024-03-02T10:43:36;4.57;;;4.17;;
7887;SDS011;3989;48.810;9.208;2024-03-02T10:46:04;4.33;;;4.03;;
7887;SDS011;3989;48.810;9.208;2024-03-02T10:48:31;4.60;;;4.30;;
7887;SDS011;3989;48.810;9.208;2024-03-02T10:51:02;5.20;;;4.07;;
7887;SDS011;3989;48.810;9.208;2024-03-02T10:53:29;4.20;;;3.90;;
7887;SDS011;3989;48.810;9.208;2024-03-02T10:55:58;4.30;;;4.00;;
7887;SDS011;3989;48.810;9.208;2024-03-02T10:58:27;4.00;;;3.80;;
7887;SDS011;3989;48.810;9.208;2024-03-02T11:00:58;4.10;;;3.80;;
7887;SDS011;3989;48.810;9.208;2024-03-02T11:03:29;4.17;;;3.83;;
7887;SDS011;3989;48.810;9.208;2024-03-02T11:06:00;3.73;;;3.43;;
7887;SDS011;3989;48.810;9.208;2024-03-02T11:08:31;3.73;;;3.33;;
7887;SDS011;3989;48.810;9.208;2024-03-02T11:11:04;3.87;;;3.60;;
7887;SDS011;3989;48.810;9.208;2024-03-02T11:13:35;4.03;;;3.70;;
7887;SDS011;3989;48.810;9.208;2024-03-02T11:16:06;3.83;;;3.63;;
7887;SDS011;3989;48.810;9.208;2024-03-02T11:22:10;3.53;;;3.33;;
7887;SDS011;3989;48.810;9.208;2024-03-02T11:24:38;3.13;;;2.93;;
7887;SDS011;3989;48.810;9.208;2024-03-02T11:27:07;3.40;;;3.20;;
7887;SDS011;3989;48.810;9.208;2024-03-02T11:29:44;3.53;;;3.23;;
7887;SDS011;3989;48.810;9.208;2024-03-02T11:32:17;3.10;;;2.90;;
7887;SDS011;3989;48.810;9.208;2024-03-02T11:34:49;3.10;;;2.90;;
7887;SDS011;3989;48.810;9.208;2024-03-02T11:37:17;3.73;;;2.90;;
7887;SDS011;3989;48.810;9.208;2024-03-02T11:39:46;2.53;;;2.33;;
7887;SDS011;3989;48.810;9.208;2024-03-02T11:42:17;2.20;;;2.10;;
7887;SDS011;3989;48.810;9.208;2024-03-02T11:44:45;2.23;;;1.93;;
7887;SDS011;3989;48.810;9.208;2024-03-02T11:47:15;2.77;;;2.20;;
7887;SDS011;3989;48.810;9.208;2024-03-02T11:49:43;2.10;;;2.00;;
7887;SDS011;3989;48.810;9.208;2024-03-02T11:52:11;2.07;;;1.97;;
7887;SDS011;3989;48.810;9.208;2024-03-02T11:54:40;1.40;;;1.40;;
7887;SDS011;3989;48.810;9.208;2024-03-02T11:57:12;1.57;;;1.47;;
7887;SDS011;3989;48.810;9.208;2024-03-02T11:59:41;1.50;;;1.23;;
7887;SDS011;3989;48.810;9.208;2024-03-02T12:02:12;1.10;;;1.10;;
7887;SDS011;3989;48.810;9.208;2024-03-02T12:04:42;1.00;;;1.00;;
7887;SDS011;3989;48.810;9.208;2024-03-02T12:07:10;1.10;;;1.00;;
7887;SDS011;3989;48.810;9.208;2024-03-02T12:09:37;0.53;;;0.53;;
7887;SDS011;3989;48.810;9.208;2024-03-02T12:12:05;0.73;;;0.40;;
7887;SDS011;3989;48.810;9.208;2024-03-02T12:14:33;0.90;;;0.90;;
7887;SDS011;3989;48.810;9.208;2024-03-02T12:17:03;0.80;;;0.80;;
7887;SDS011;3989;48.810;9.208;2024-03-02T12:19:31;0.90;;;0.90;;
7887;SDS011;3989;48.810;9.208;2024-03-02T12:21:59;0.80;;;0.80;;
7887;SDS011;3989;48.810;9.208;2024-03-02T12:24:27;1.10;;;1.10;;
7887;SDS011;3989;48.810;9.208;2024-03-02T12:26:56;0.80;;;0.80;;
7887;SDS011;3989;48.810;9.208;2024-03-02T12:29:23;0.83;;;0.83;;
7887;SDS011;3989;48.810;9.208;2024-03-02T12:31:51;1.00;;;1.00;;
7887;SDS011;3989;48.810;9.208;2024-03-02T12:34:21;1.33;;;1.10;;
7887;SDS011;3989;48.810;9.208;2024-03-02T12:36:49;0.97;;;0.90;;
7887;SDS011;3989;48.810;9.208;2024-03-02T12:39:24;1.50;;;1.10;;
7887;SDS011;3989;48.810;9.208;2024-03-02T12:41:52;1.00;;;0.90;;
7887;SDS011;3989;48.810;9.208;2024-03-02T12:44:20;1.10;;;1.10;;
7887;SDS011;3989;48.810;9.208;2024-03-02T12:46:47;1.17;;;1.17;;
7887;SDS011;3989;48.810;9.208;2024-03-02T12:49:15;1.33;;;1.33;;
7887;SDS011;3989;48.810;9.208;2024-03-02T12:51:43;0.60;;;0.60;;
7887;SDS011;3989;48.810;9.208;2024-03-02T12:54:17;1.07;;;0.80;;
7887;SDS011;3989;48.810;9.208;2024-03-02T12:56:44;0.97;;;0.90;;
7887;SDS011;3989;48.810;9.208;2024-03-02T12:59:17;0.80;;;0.80;;
7887;SDS011;3989;48.810;9.208;2024-03-02T13:01:50;0.50;;;0.50;;
7887;SDS011;3989;48.810;9.208;2024-03-02T13:04:21;0.90;;;0.90;;
7887;SDS011;3989;48.810;9.208;2024-03-02T13:06:50;0.73;;;0.73;;
7887;SDS011;3989;48.810;9.208;2024-03-02T13:09:18;0.60;;;0.60;;
7887;SDS011;3989;48.810;9.208;2024-03-02T13:11:54;1.07;;;0.90;;
7887;SDS011;3989;48.810;9.208;2024-03-02T13:14:22;0.93;;;0.80;;
7887;SDS011;3989;48.810;9.208;2024-03-02T13:16:50;0.93;;;0.93;;
7887;SDS011;3989;48.810;9.208;2024-03-02T13:19:18;0.90;;;0.90;;
7887;SDS011;3989;48.810;9.208;2024-03-02T13:21:46;1.00;;;1.00;;
7887;SDS011;3989;48.810;9.208;2024-03-02T13:24:15;0.90;;;0.90;;
7887;SDS011;3989;48.810;9.208;2024-03-02T13:26:43;0.90;;;0.90;;
7887;SDS011;3989;48.810;9.208;2024-03-02T13:29:11;0.73;;;0.73;;
7887;SDS011;3989;48.810;9.208;2024-03-02T13:31:40;0.80;;;0.80;;
7887;SDS011;3989;48.810;9.208;2024-03-02T13:34:07;1.00;;;0.80;;
7887;SDS011;3989;48.810;9.208;2024-03-02T13:36:35;0.70;;;0.70;;
7887;SDS011;3989;48.810;9.208;2024-03-02T13:39:06;1.00;;;1.00;;
7887;SDS011;3989;48.810;9.208;2024-03-02T13:51:49;0.77;;;0.77;;
7887;SDS011;3989;48.810;9.208;2024-03-02T13:54:25;1.00;;;1.00;;
7887;SDS011;3989;48.810;9.208;2024-03-02T13:56:52;0.90;;;0.90;;
7887;SDS011;3989;48.810;9.208;2024-03-02T13:59:27;1.27;;;1.27;;
7887;SDS011;3989;48.810;9.208;2024-03-02T14:02:08;1.10;;;1.10;;
7887;SDS011;3989;48.810;9.208;2024-03-02T14:04:40;0.80;;;0.80;;
7887;SDS011;3989;48.810;9.208;2024-03-02T14:07:09;1.00;;;1.00;;
7887;SDS011;3989;48.810;9.208;2024-03-02T14:09:37;0.90;;;0.90;;
7887;SDS011;3989;48.810;9.208;2024-03-02T14:12:04;1.10;;;1.00;;
7887;SDS011;3989;48.810;9.208;2024-03-02T14:14:32;1.10;;;1.10;;
7887;SDS011;3989;48.810;9.208;2024-03-02T14:16:59;1.10;;;1.10;;
7887;SDS011;3989;48.810;9.208;2024-03-02T14:19:29;1.30;;;1.30;;
7887;SDS011;3989;48.810;9.208;2024-03-02T14:21:56;1.40;;;1.30;;
7887;SDS011;3989;48.810;9.208;2024-03-02T14:24:25;1.33;;;1.27;;
7887;SDS011;3989;48.810;9.208;2024-03-02T14:26:54;1.00;;;1.00;;
7887;SDS011;3989;48.810;9.208;2024-03-02T14:29:22;3.17;;;1.00;;
7887;SDS011;3989;48.810;9.208;2024-03-02T14:31:49;1.13;;;1.13;;
7887;SDS011;3989;48.810;9.208;2024-03-02T14:34:16;1.10;;;1.10;;
7887;SDS011;3989;48.810;9.208;2024-03-02T14:36:43;1.10;;;1.10;;
7887;SDS011;3989;48.810;9.208;2024-03-02T14:39:11;0.90;;;0.90;;
7887;SDS011;3989;48.810;9.208;2024-03-02T14:41:40;1.00;;;1.00;;
7887;SDS011;3989;48.810;9.208;2024-03-02T14:44:08;2.77;;;1.30;;
7887;SDS011;3989;48.810;9.208;2024-03-02T14:46:35;2.97;;;1.10;;
7887;SDS011;3989;48.810;9.208;2024-03-02T14:49:02;0.90;;;0.90;;
7887;SDS011;3989;48.810;9.208;2024-03-02T14:51:29;1.00;;;1.00;;
7887;SDS011;3989;48.810;9.208;2024-03-02T14:53:56;1.13;;;1.13;;
7887;SDS011;3989;48.810;9.208;2024-03-02T14:56:24;0.90;;;0.90;;
7887;SDS011;3989;48.810;9.208;2024-03-02T14:58:56;0.90;;;0.90;;
7887;SDS011;3989;48.810;9.208;2024-03-02T15:01:23;0.83;;;0.83;;
7887;SDS011;3989;48.810;9.208;2024-03-02T15:03:51;1.00;;;1.00;;
7887;SDS011;3989;48.810;9.208;2024-03-02T15:06:18;1.10;;;1.10;;
7887;SDS011;3989;48.810;9.208;2024-03-02T15:08:45;0.80;;;0.80;;
7887;SDS011;3989;48.810;9.208;2024-03-02T15:11:12;1.70;;;1.60;;
7887;SDS011;3989;48.810;9.208;2024-03-02T15:13:39;1.23;;;1.13;;
7887;SDS011;3989;48.810;9.208;2024-03-02T15:16:09;1.50;;;1.13;;
7887;SDS011;3989;48.810;9.208;2024-03-02T15:18:36;0.90;;;0.90;;
7887;SDS011;3989;48.810;9.208;2024-03-02T15:21:04;0.90;;;0.90;;
7887;SDS011;3989;48.810;9.208;2024-03-02T15:23:31;1.10;;;1.00;;
7887;SDS011;3989;48.810;9.208;2024-03-02T15:25:59;2.10;;;1.10;;
7887;SDS011;3989;48.810;9.208;2024-03-02T15:28:26;1.30;;;1.20;;
7887;SDS011;3989;48.810;9.208;2024-03-02T15:30:54;1.00;;;1.00;;
7887;SDS011;3989;48.810;9.208;2024-03-02T15:33:23;1.20;;;1.20;;
7887;SDS011;3989;48.810;9.208;2024-03-02T15:35:57;1.20;;;1.20;;
7887;SDS011;3989;48.810;9.208;2024-03-02T15:38:25;1.20;;;1.20;;
7887;SDS011;3989;48.810;9.208;2024-03-02T15:40:53;1.17;;;1.17;;
7887;SDS011;3989;48.810;9.208;2024-03-02T15:43:20;1.10;;;1.10;;
7887;SDS011;3989;48.810;9.208;2024-03-02T15:45:49;1.20;;;1.10;;
7887;SDS011;3989;48.810;9.208;2024-03-02T15:48:16;1.00;;;1.00;;
7887;SDS011;3989;48.810;9.208;2024-03-02T15:50:45;0.90;;;0.90;;
7887;SDS011;3989;48.810;9.208;2024-03-02T15:53:12;0.80;;;0.80;;
7887;SDS011;3989;48.810;9.208;2024-03-02T15:55:39;1.93;;;1.10;;
7887;SDS011;3989;48.810;9.208;2024-03-02T15:58:06;1.60;;;1.50;;
7887;SDS011;3989;48.810;9.208;2024-03-02T16:00:34;1.23;;;1.23;;
7887;SDS011;3989;48.810;9.208;2024-03-02T16:03:01;1.47;;;1.37;;
7887;SDS011;3989;48.810;9.208;2024-03-02T16:05:29;1.80;;;1.70;;
7887;SDS011;3989;48.810;9.208;2024-03-02T16:07:57;2.00;;;1.30;;
7887;SDS011;3989;48.810;9.208;2024-03-02T16:10:24;1.40;;;1.30;;
7887;SDS011;3989;48.810;9.208;2024-03-02T16:12:52;1.30;;;1.30;;
7887;SDS011;3989;48.810;9.208;2024-03-02T16:15:20;1.87;;;1.80;;
7887;SDS011;3989;48.810;9.208;2024-03-02T16:17:48;2.50;;;1.60;;
7887;SDS011;3989;48.810;9.208;2024-03-02T16:20:15;1.60;;;1.50;;
7887;SDS011;3989;48.810;9.208;2024-03-02T16:22:42;1.67;;;1.50;;
7887;SDS011;3989;48.810;9.208;2024-03-02T16:25:10;2.00;;;1.20;;
7887;SDS011;3989;48.810;9.208;2024-03-02T16:27:38;1.67;;;1.57;;
7887;SDS011;3989;48.810;9.208;2024-03-02T16:30:07;5.93;;;1.90;;
7887;SDS011;3989;48.810;9.208;2024-03-02T16:32:34;1.83;;;1.73;;
7887;SDS011;3989;48.810;9.208;2024-03-02T16:35:02;1.80;;;1.73;;
7887;SDS011;3989;48.810;9.208;2024-03-02T16:37:30;1.90;;;1.80;;
7887;SDS011;3989;48.810;9.208;2024-03-02T16:39:57;2.37;;;2.27;;
7887;SDS011;3989;48.810;9.208;2024-03-02T16:42:26;2.00;;;1.90;;
7887;SDS011;3989;48.810;9.208;2024-03-02T16:44:53;2.70;;;2.10;;
7887;SDS011;3989;48.810;9.208;2024-03-02T16:47:22;2.47;;;2.27;;
7887;SDS011;3989;48.810;9.208;2024-03-02T16:49:51;2.47;;;2.27;;
7887;SDS011;3989;48.810;9.208;2024-03-02T16:52:18;2.20;;;2.10;;
7887;SDS011;3989;48.810;9.208;2024-03-02T16:54:50;2.70;;;2.50;;
7887;SDS011;3989;48.810;9.208;2024-03-02T16:57:29;3.83;;;3.47;;
7887;SDS011;3989;48.810;9.208;2024-03-02T16:59:56;3.90;;;3.53;;
7887;SDS011;3989;48.810;9.208;2024-03-02T17:02:23;7.10;;;3.73;;
7887;SDS011;3989;48.810;9.208;2024-03-02T17:04:51;3.90;;;3.70;;
7887;SDS011;3989;48.810;9.208;2024-03-02T17:07:18;3.50;;;3.30;;
7887;SDS011;3989;48.810;9.208;2024-03-02T17:09:45;3.40;;;3.10;;
7887;SDS011;3989;48.810;9.208;2024-03-02T17:12:12;3.40;;;3.20;;
7887;SDS011;3989;48.810;9.208;2024-03-02T17:14:40;2.67;;;2.47;;
7887;SDS011;3989;48.810;9.208;2024-03-02T17:17:08;4.97;;;2.53;;
7887;SDS011;3989;48.810;9.208;2024-03-02T17:19:35;3.10;;;2.80;;
7887;SDS011;3989;48.810;9.208;2024-03-02T17:22:02;3.77;;;3.57;;
7887;SDS011;3989;48.810;9.208;2024-03-02T17:24:29;3.93;;;3.63;;
7887;SDS011;3989;48.810;9.208;2024-03-02T17:26:56;3.90;;;3.60;;
7887;SDS011;3989;48.810;9.208;2024-03-02T17:29:23;4.93;;;4.40;;
7887;SDS011;3989;48.810;9.208;2024-03-02T17:31:52;5.20;;;4.83;;
7887;SDS011;3989;48.810;9.208;2024-03-02T17:34:21;5.10;;;4.60;;
7887;SDS011;3989;48.810;9.208;2024-03-02T17:36:49;4.60;;;4.20;;
7887;SDS011;3989;48.810;9.208;2024-03-02T17:39:16;4.77;;;4.20;;
7887;SDS011;3989;48.810;9.208;2024-03-02T17:41:43;5.13;;;3.93;;
7887;SDS011;3989;48.810;9.208;2024-03-02T17:44:10;4.43;;;4.13;;
7887;SDS011;3989;48.810;9.208;2024-03-02T17:46:37;4.90;;;4.50;;
7887;SDS011;3989;48.810;9.208;2024-03-02T17:49:05;5.30;;;4.80;;
7887;SDS011;3989;48.810;9.208;2024-03-02T17:51:32;6.23;;;4.83;;
7887;SDS011;3989;48.810;9.208;2024-03-02T17:54:00;5.13;;;4.77;;
7887;SDS011;3989;48.810;9.208;2024-03-02T17:56:28;5.27;;;4.87;;
7887;SDS011;3989;48.810;9.208;2024-03-02T17:58:55;5.53;;;5.03;;
7887;SDS011;3989;48.810;9.208;2024-03-02T18:01:22;6.17;;;5.40;;
7887;SDS011;3989;48.810;9.208;2024-03-02T18:03:49;5.60;;;5.10;;
7887;SDS011;3989;48.810;9.208;2024-03-02T18:06:18;6.17;;;5.67;;
7887;SDS011;3989;48.810;9.208;2024-03-02T18:08:45;6.23;;;5.73;;
7887;SDS011;3989;48.810;9.208;2024-03-02T18:11:15;6.37;;;5.80;;
7887;SDS011;3989;48.810;9.208;2024-03-02T18:13:43;7.13;;;6.53;;
7887;SDS011;3989;48.810;9.208;2024-03-02T18:16:11;7.40;;;6.80;;
7887;SDS011;3989;48.810;9.208;2024-03-02T18:18:40;6.97;;;6.37;;
7887;SDS011;3989;48.810;9.208;2024-03-02T18:21:08;7.47;;;6.73;;
7887;SDS011;3989;48.810;9.208;2024-03-02T18:23:36;9.50;;;8.50;;
7887;SDS011;3989;48.810;9.208;2024-03-02T18:26:03;9.03;;;7.93;;
7887;SDS011;3989;48.810;9.208;2024-03-02T18:28:30;11.53;;;8.27;;
7887;SDS011;3989;48.810;9.208;2024-03-02T18:30:57;10.00;;;9.00;;
7887;SDS011;3989;48.810;9.208;2024-03-02T18:33:25;9.87;;;8.40;;
7887;SDS011;3989;48.810;9.208;2024-03-02T18:35:52;10.70;;;9.67;;
7887;SDS011;3989;48.810;9.208;2024-03-02T18:38:20;11.10;;;9.90;;
7887;SDS011;3989;48.810;9.208;2024-03-02T18:40:50;13.93;;;10.30;;
7887;SDS011;3989;48.810;9.208;2024-03-02T18:43:17;15.97;;;11.53;;
7887;SDS011;3989;48.810;9.208;2024-03-02T18:45:44;12.13;;;9.53;;
7887;SDS011;3989;48.810;9.208;2024-03-02T18:48:11;10.50;;;9.40;;
7887;SDS011;3989;48.810;9.208;2024-03-02T18:50:38;10.60;;;9.60;;
7887;SDS011;3989;48.810;9.208;2024-03-02T18:53:05;10.73;;;9.73;;
7887;SDS011;3989;48.810;9.208;2024-03-02T18:55:32;10.27;;;9.07;;
7887;SDS011;3989;48.810;9.208;2024-03-02T18:58:00;10.23;;;9.23;;
7887;SDS011;3989;48.810;9.208;2024-03-02T19:00:28;7.93;;;7.07;;
7887;SDS011;3989;48.810;9.208;2024-03-02T19:02:55;7.93;;;7.17;;
7887;SDS011;3989;48.810;9.208;2024-03-02T19:05:22;7.43;;;6.67;;
7887;SDS011;3989;48.810;9.208;2024-03-02T19:07:50;7.80;;;7.10;;
7887;SDS011;3989;48.810;9.208;2024-03-02T19:10:17;8.43;;;7.47;;
7887;SDS011;3989;48.810;9.208;2024-03-02T19:12:43;6.73;;;6.13;;
7887;SDS011;3989;48.810;9.208;2024-03-02T19:15:14;7.63;;;6.93;;
7887;SDS011;3989;48.810;9.208;2024-03-02T19:17:41;8.33;;;7.40;;
7887;SDS011;3989;48.810;9.208;2024-03-02T19:20:09;8.50;;;7.77;;
7887;SDS011;3989;48.810;9.208;2024-03-02T19:22:37;8.43;;;7.40;;
7887;SDS011;3989;48.810;9.208;2024-03-02T19:25:04;8.97;;;8.10;;
7887;SDS011;3989;48.810;9.208;2024-03-02T19:27:34;10.13;;;8.70;;
7887;SDS011;3989;48.810;9.208;2024-03-02T19:30:02;10.60;;;8.40;;
7887;SDS011;3989;48.810;9.208;2024-03-02T19:32:34;9.73;;;7.93;;
7887;SDS011;3989;48.810;9.208;2024-03-02T19:35:01;10.47;;;8.83;;
7887;SDS011;3989;48.810;9.208;2024-03-02T19:37:31;9.50;;;8.43;;
7887;SDS011;3989;48.810;9.208;2024-03-02T19:40:00;9.77;;;8.87;;
7887;SDS011;3989;48.810;9.208;2024-03-02T19:42:29;11.43;;;10.17;;
7887;SDS011;3989;48.810;9.208;2024-03-02T19:44:57;12.20;;;10.23;;
7887;SDS011;3989;48.810;9.208;2024-03-02T19:47:24;12.23;;;10.23;;
7887;SDS011;3989;48.810;9.208;2024-03-02T19:49:53;12.03;;;10.73;;
7887;SDS011;3989;48.810;9.208;2024-03-02T19:52:19;12.30;;;11.00;;
7887;SDS011;3989;48.810;9.208;2024-03-02T19:54:46;11.80;;;10.57;;
7887;SDS011;3989;48.810;9.208;2024-03-02T19:57:14;12.47;;;10.53;;
7887;SDS011;3989;48.810;9.208;2024-03-02T19:59:42;13.20;;;10.47;;
7887;SDS011;3989;48.810;9.208;2024-03-02T20:02:09;12.70;;;11.13;;
7887;SDS011;3989;48.810;9.208;2024-03-02T20:04:37;13.23;;;10.70;;
7887;SDS011;3989;48.810;9.208;2024-03-02T20:07:06;13.87;;;11.77;;
7887;SDS011;3989;48.810;9.208;2024-03-02T20:09:34;12.77;;;11.20;;
7887;SDS011;3989;48.810;9.208;2024-03-02T20:12:01;14.23;;;11.83;;
7887;SDS011;3989;48.810;9.208;2024-03-02T20:14:29;15.27;;;11.43;;
7887;SDS011;3989;48.810;9.208;2024-03-02T20:16:58;14.13;;;11.70;;
7887;SDS011;3989;48.810;9.208;2024-03-02T20:19:25;13.43;;;12.03;;
7887;SDS011;3989;48.810;9.208;2024-03-02T20:21:52;13.67;;;11.80;;
7887;SDS011;3989;48.810;9.208;2024-03-02T20:24:21;14.73;;;12.60;;
7887;SDS011;3989;48.810;9.208;2024-03-02T20:26:48;17.00;;;13.00;;
7887;SDS011;3989;48.810;9.208;2024-03-02T20:29:15;15.37;;;12.40;;
7887;SDS011;3989;48.810;9.208;2024-03-02T20:31:42;15.77;;;13.07;;
7887;SDS011;3989;48.810;9.208;2024-03-02T20:34:09;15.90;;;13.37;;
7887;SDS011;3989;48.810;9.208;2024-03-02T20:36:37;16.10;;;12.57;;
7887;SDS011;3989;48.810;9.208;2024-03-02T20:39:04;16.37;;;13.40;;
7887;SDS011;3989;48.810;9.208;2024-03-02T20:41:33;15.97;;;12.90;;
7887;SDS011;3989;48.810;9.208;2024-03-02T20:44:01;16.13;;;13.30;;
7887;SDS011;3989;48.810;9.208;2024-03-02T20:46:29;20.00;;;14.10;;
7887;SDS011;3989;48.810;9.208;2024-03-02T20:48:56;16.37;;;13.93;;
7887;SDS011;3989;48.810;9.208;2024-03-02T20:51:23;17.43;;;13.73;;
7887;SDS011;3989;48.810;9.208;2024-03-02T20:53:54;19.07;;;15.23;;
7887;SDS011;3989;48.810;9.208;2024-03-02T20:56:21;18.50;;;14.83;;
7887;SDS011;3989;48.810;9.208;2024-03-02T20:58:49;20.37;;;14.53;;
7887;SDS011;3989;48.810;9.208;2024-03-02T21:01:17;17.30;;;14.20;;
7887;SDS011;3989;48.810;9.208;2024-03-02T21:03:44;19.57;;;15.47;;